Time;durP1;ratioP1;P1;durP2;ratioP2;P2;SDS_P1;SDS_P2;PMS_P1;PMS_P2;Temp;Humidity;BMP_temperature;BMP_pressure;BME280_temperature;BME280_humidity;BME280_pressure;Samples;Min_cycle;Max_cycle;Signal;HPM_P1;HPM_P2
2023/06/19 00:01:18;;;;;;;7.88;7.07;;;;;;;;;;5055676;28;20185;-46
2023/06/19 00:03:44;;;;;;;8.48;6.82;;;;;;;;;;5057432;28;20571;-46
2023/06/19 00:06:12;;;;;;;8.75;7.13;;;;;;;;;;5049757;28;20192;-47
2023/06/19 00:08:41;;;;;;;9.13;7.15;;;;;;;;;;5065164;28;20602;-47
2023/06/19 00:11:07;;;;;;;8.63;7.65;;;;;;;;;;5058951;28;20175;-47
2023/06/19 00:13:33;;;;;;;7.32;6.63;;;;;;;;;;5058988;28;20294;-46
2023/06/19 00:16:00;;;;;;;8.57;6.90;;;;;;;;;;5057493;28;20602;-46
2023/06/19 00:18:26;;;;;;;7.65;6.80;;;;;;;;;;5061946;28;20202;-47
2023/06/19 00:20:54;;;;;;;8.10;6.88;;;;;;;;;;5056271;28;20187;-47
2023/06/19 00:23:20;;;;;;;8.25;7.00;;;;;;;;;;5057756;28;20202;-47
2023/06/19 00:25:46;;;;;;;9.35;6.60;;;;;;;;;;5055671;28;20187;-47
2023/06/19 00:28:13;;;;;;;8.48;7.18;;;;;;;;;;5053186;28;20207;-46
2023/06/19 00:30:40;;;;;;;8.38;7.15;;;;;;;;;;5053892;28;20571;-47
2023/06/19 00:33:05;;;;;;;8.82;7.57;;;;;;;;;;5050834;28;20235;-47
2023/06/19 00:35:31;;;;;;;7.35;6.65;;;;;;;;;;5060343;28;20194;-47
2023/06/19 00:38:00;;;;;;;7.22;6.53;;;;;;;;;;5060996;28;20183;-46
2023/06/19 00:40:33;;;;;;;7.47;6.38;;;;;;;;;;5058259;28;20232;-46
2023/06/19 00:43:00;;;;;;;8.60;7.30;;;;;;;;;;5061884;28;20240;-47
2023/06/19 00:45:26;;;;;;;7.50;6.80;;;;;;;;;;5059251;28;20633;-47
2023/06/19 00:47:53;;;;;;;9.57;6.85;;;;;;;;;;5069498;28;20532;-47
2023/06/19 00:50:19;;;;;;;7.35;6.57;;;;;;;;;;5056830;28;20203;-47
2023/06/19 00:52:45;;;;;;;8.43;7.38;;;;;;;;;;5063566;28;20562;-47
2023/06/19 00:55:12;;;;;;;7.93;6.65;;;;;;;;;;5068824;28;20174;-46
2023/06/19 00:57:39;;;;;;;7.45;6.70;;;;;;;;;;5062696;28;20237;-46
2023/06/19 01:00:07;;;;;;;7.40;6.60;;;;;;;;;;5062505;28;20594;-47
2023/06/19 01:02:33;;;;;;;7.07;6.35;;;;;;;;;;5054111;28;20503;-47
2023/06/19 01:04:59;;;;;;;7.18;6.47;;;;;;;;;;5056343;28;20248;-46
2023/06/19 01:07:44;;;;;;;7.40;6.70;;;;;;;;;;5060597;28;20302;-46
2023/06/19 01:10:12;;;;;;;7.45;6.65;;;;;;;;;;5068029;28;20182;-46
2023/06/19 01:12:40;;;;;;;8.10;6.22;;;;;;;;;;5072582;28;20187;-46
2023/06/19 01:15:08;;;;;;;7.45;6.70;;;;;;;;;;5055737;28;20804;-46
2023/06/19 01:17:35;;;;;;;7.35;6.63;;;;;;;;;;5052555;28;20219;-46
2023/06/19 01:20:07;;;;;;;8.27;6.95;;;;;;;;;;5067971;28;20227;-46
2023/06/19 01:22:33;;;;;;;7.60;6.85;;;;;;;;;;5065752;28;20198;-47
2023/06/19 01:24:59;;;;;;;7.38;6.57;;;;;;;;;;5067774;28;20178;-47
2023/06/19 01:27:25;;;;;;;8.43;7.05;;;;;;;;;;5072452;28;20211;-47
2023/06/19 01:29:53;;;;;;;7.82;6.80;;;;;;;;;;5065116;28;20187;-47
2023/06/19 01:32:24;;;;;;;9.73;7.22;;;;;;;;;;5064159;28;20622;-47
2023/06/19 01:34:50;;;;;;;7.82;6.93;;;;;;;;;;5057508;28;20563;-47
2023/06/19 01:37:16;;;;;;;8.48;6.95;;;;;;;;;;5067531;28;20261;-47
2023/06/19 01:39:43;;;;;;;9.35;6.95;;;;;;;;;;5069664;28;20270;-47
2023/06/19 01:42:11;;;;;;;7.63;6.82;;;;;;;;;;5063854;28;20180;-47
2023/06/19 01:44:38;;;;;;;8.13;6.90;;;;;;;;;;5067907;28;20542;-47
2023/06/19 01:47:08;;;;;;;9.10;7.65;;;;;;;;;;5061019;28;20228;-47
2023/06/19 01:49:34;;;;;;;7.60;6.50;;;;;;;;;;5056955;28;20199;-46
2023/06/19 01:52:00;;;;;;;8.48;6.70;;;;;;;;;;5063843;28;20544;-47
2023/06/19 01:54:27;;;;;;;7.90;7.10;;;;;;;;;;5064535;28;20509;-47
2023/06/19 01:56:53;;;;;;;7.15;6.35;;;;;;;;;;5066725;28;20195;-47
2023/06/19 01:59:19;;;;;;;7.57;6.82;;;;;;;;;;5063594;28;20257;-47
2023/06/19 02:01:45;;;;;;;7.90;6.82;;;;;;;;;;5057665;28;20221;-46
2023/06/19 02:04:11;;;;;;;9.85;6.80;;;;;;;;;;5066927;28;20170;-46
2023/06/19 02:06:37;;;;;;;8.73;6.68;;;;;;;;;;5051915;28;20581;-46
2023/06/19 02:09:02;;;;;;;7.53;6.82;;;;;;;;;;5055676;28;20210;-47
2023/06/19 02:11:28;;;;;;;7.13;6.43;;;;;;;;;;5057545;28;20258;-46
2023/06/19 02:13:54;;;;;;;7.10;6.40;;;;;;;;;;5064824;28;20186;-46
2023/06/19 02:16:20;;;;;;;7.57;6.70;;;;;;;;;;5058746;28;20217;-46
2023/06/19 02:18:46;;;;;;;7.75;6.80;;;;;;;;;;5067337;28;20281;-46
2023/06/19 02:21:12;;;;;;;9.02;6.95;;;;;;;;;;5056365;28;20221;-46
2023/06/19 02:23:38;;;;;;;8.30;6.60;;;;;;;;;;5057677;28;20241;-46
2023/06/19 02:26:04;;;;;;;8.32;6.78;;;;;;;;;;5056846;28;20182;-46
2023/06/19 02:28:30;;;;;;;7.78;6.82;;;;;;;;;;5063166;28;20198;-46
2023/06/19 02:30:56;;;;;;;8.25;7.20;;;;;;;;;;5055941;28;20190;-46
2023/06/19 02:33:22;;;;;;;7.80;7.00;;;;;;;;;;5054871;28;20180;-46
2023/06/19 02:35:48;;;;;;;7.20;6.10;;;;;;;;;;5072787;28;20558;-46
2023/06/19 02:38:14;;;;;;;8.02;6.80;;;;;;;;;;5056276;28;20188;-47
2023/06/19 02:40:40;;;;;;;9.55;6.68;;;;;;;;;;5066923;28;20262;-46
2023/06/19 02:43:06;;;;;;;8.00;6.65;;;;;;;;;;5071624;28;20767;-46
2023/06/19 02:45:32;;;;;;;9.45;7.32;;;;;;;;;;5056563;28;20198;-46
2023/06/19 02:47:58;;;;;;;7.95;7.03;;;;;;;;;;5055885;28;20313;-46
2023/06/19 02:50:24;;;;;;;8.55;6.47;;;;;;;;;;5055166;28;20209;-46
2023/06/19 02:52:50;;;;;;;7.88;6.82;;;;;;;;;;5065150;28;20190;-46
2023/06/19 02:55:16;;;;;;;8.63;6.72;;;;;;;;;;5062287;28;20190;-46
2023/06/19 02:57:41;;;;;;;7.90;7.07;;;;;;;;;;5063317;28;20191;-46
2023/06/19 03:00:09;;;;;;;9.00;6.43;;;;;;;;;;5054774;28;20194;-46
2023/06/19 03:02:35;;;;;;;7.20;6.43;;;;;;;;;;5069005;28;20190;-47
2023/06/19 03:05:02;;;;;;;8.75;6.25;;;;;;;;;;5059130;28;20183;-47
2023/06/19 03:07:28;;;;;;;8.15;6.53;;;;;;;;;;5059932;28;20203;-47
2023/06/19 03:09:54;;;;;;;8.48;6.88;;;;;;;;;;5055331;28;20177;-47
2023/06/19 03:12:20;;;;;;;7.22;6.47;;;;;;;;;;5058013;28;20236;-47
2023/06/19 03:14:46;;;;;;;8.27;6.93;;;;;;;;;;5063851;28;20752;-47
2023/06/19 03:17:13;;;;;;;8.00;7.10;;;;;;;;;;5061380;28;20200;-47
2023/06/19 03:19:38;;;;;;;8.32;7.25;;;;;;;;;;5066147;28;20178;-47
2023/06/19 03:22:05;;;;;;;8.48;7.03;;;;;;;;;;5054437;28;20452;-47
2023/06/19 03:24:31;;;;;;;8.20;6.60;;;;;;;;;;5066133;28;20570;-47
2023/06/19 03:26:57;;;;;;;7.15;6.45;;;;;;;;;;5066330;28;20238;-47
2023/06/19 03:29:22;;;;;;;9.70;6.68;;;;;;;;;;5066185;28;20189;-47
2023/06/19 03:31:48;;;;;;;7.53;6.32;;;;;;;;;;5064563;28;20186;-47
2023/06/19 03:34:14;;;;;;;9.13;6.97;;;;;;;;;;5062209;28;20278;-47
2023/06/19 03:36:40;;;;;;;8.15;6.72;;;;;;;;;;5053329;28;20320;-47
2023/06/19 03:39:06;;;;;;;7.35;6.18;;;;;;;;;;5073486;28;20190;-47
2023/06/19 03:41:32;;;;;;;7.63;6.68;;;;;;;;;;5064361;28;20190;-47
2023/06/19 03:43:58;;;;;;;8.43;7.05;;;;;;;;;;5067030;28;20278;-47
2023/06/19 03:46:24;;;;;;;7.15;6.45;;;;;;;;;;5060956;28;20232;-47
2023/06/19 03:48:50;;;;;;;8.40;6.78;;;;;;;;;;5061056;28;20225;-47
2023/06/19 03:51:16;;;;;;;7.50;6.32;;;;;;;;;;5067964;28;20183;-47
2023/06/19 03:53:42;;;;;;;8.07;6.68;;;;;;;;;;5069055;28;20182;-46
2023/06/19 03:56:08;;;;;;;9.93;6.80;;;;;;;;;;5064711;28;20562;-47
2023/06/19 03:58:34;;;;;;;10.82;7.07;;;;;;;;;;5065166;28;20187;-46
2023/06/19 04:00:59;;;;;;;8.82;6.68;;;;;;;;;;5059977;28;20190;-46
2023/06/19 04:03:25;;;;;;;13.18;6.35;;;;;;;;;;5066332;28;20221;-46
2023/06/19 04:05:51;;;;;;;12.73;6.70;;;;;;;;;;5066602;28;20187;-46
2023/06/19 04:08:17;;;;;;;8.95;6.53;;;;;;;;;;5052980;28;20199;-46
2023/06/19 04:10:44;;;;;;;7.85;6.97;;;;;;;;;;5061312;28;20203;-46
2023/06/19 04:13:10;;;;;;;7.82;6.68;;;;;;;;;;5070866;28;20185;-46
2023/06/19 04:15:37;;;;;;;11.65;7.20;;;;;;;;;;5061683;28;20233;-46
2023/06/19 04:18:03;;;;;;;8.77;6.78;;;;;;;;;;5053200;28;20224;-47
2023/06/19 04:20:29;;;;;;;8.05;6.82;;;;;;;;;;5055619;28;20254;-47
2023/06/19 04:22:54;;;;;;;7.85;7.05;;;;;;;;;;5062430;28;20201;-47
2023/06/19 04:25:20;;;;;;;8.95;7.18;;;;;;;;;;5056179;28;20289;-46
2023/06/19 04:27:46;;;;;;;10.90;6.97;;;;;;;;;;5058226;28;20281;-46
2023/06/19 04:30:12;;;;;;;9.18;6.97;;;;;;;;;;5053143;28;20179;-46
2023/06/19 04:32:40;;;;;;;9.13;6.60;;;;;;;;;;5060183;28;20198;-46
2023/06/19 04:35:06;;;;;;;7.75;6.75;;;;;;;;;;5062619;28;20605;-46
2023/06/19 04:37:32;;;;;;;9.35;7.30;;;;;;;;;;5060672;28;20185;-46
2023/06/19 04:39:58;;;;;;;7.88;7.07;;;;;;;;;;5060548;28;20182;-46
2023/06/19 04:42:26;;;;;;;9.68;7.43;;;;;;;;;;5067339;28;20274;-47
2023/06/19 04:44:52;;;;;;;8.70;6.93;;;;;;;;;;5058302;28;20198;-47
2023/06/19 04:47:19;;;;;;;9.98;7.38;;;;;;;;;;5062182;28;20211;-46
2023/06/19 04:49:44;;;;;;;10.35;7.07;;;;;;;;;;5054312;28;20183;-46
2023/06/19 04:52:11;;;;;;;7.82;6.28;;;;;;;;;;5056715;28;20183;-46
2023/06/19 04:54:37;;;;;;;7.18;6.47;;;;;;;;;;5061041;28;20202;-46
2023/06/19 04:57:03;;;;;;;8.00;7.20;;;;;;;;;;5069636;28;20185;-46
2023/06/19 04:59:30;;;;;;;9.40;7.28;;;;;;;;;;5059094;28;20297;-47
2023/06/19 05:01:56;;;;;;;7.80;6.70;;;;;;;;;;5047867;28;20186;-47
2023/06/19 05:04:22;;;;;;;9.23;6.85;;;;;;;;;;5058013;28;20171;-47
2023/06/19 05:06:48;;;;;;;13.73;7.20;;;;;;;;;;5057780;28;20198;-46
2023/06/19 05:09:14;;;;;;;7.95;6.78;;;;;;;;;;5060181;28;20297;-46
2023/06/19 05:11:40;;;;;;;9.18;6.45;;;;;;;;;;5058588;28;20313;-47
2023/06/19 05:14:06;;;;;;;7.65;6.35;;;;;;;;;;5056207;28;20261;-47
2023/06/19 05:16:34;;;;;;;8.52;6.32;;;;;;;;;;5063562;28;20182;-47
2023/06/19 05:19:00;;;;;;;7.38;6.50;;;;;;;;;;5061754;28;20187;-47
2023/06/19 05:21:25;;;;;;;6.97;6.25;;;;;;;;;;5059667;28;20632;-46
2023/06/19 05:23:52;;;;;;;9.88;6.50;;;;;;;;;;5060973;28;20798;-47
2023/06/19 05:26:19;;;;;;;10.70;6.40;;;;;;;;;;5063372;28;20205;-46
2023/06/19 05:28:44;;;;;;;7.90;6.90;;;;;;;;;;5061195;28;20257;-46
2023/06/19 05:31:10;;;;;;;11.15;6.32;;;;;;;;;;5066370;28;20206;-46
2023/06/19 05:33:36;;;;;;;8.50;6.63;;;;;;;;;;5066087;28;20185;-46
2023/06/19 05:36:02;;;;;;;7.47;6.63;;;;;;;;;;5061595;28;20194;-46
2023/06/19 05:38:30;;;;;;;6.63;5.93;;;;;;;;;;5065159;28;20209;-46
2023/06/19 05:40:56;;;;;;;8.88;6.30;;;;;;;;;;5064839;28;20206;-46
2023/06/19 05:43:22;;;;;;;6.90;5.80;;;;;;;;;;5062301;28;20179;-47
2023/06/19 05:45:48;;;;;;;8.10;6.50;;;;;;;;;;5061134;28;20465;-47
2023/06/19 05:48:14;;;;;;;9.57;6.70;;;;;;;;;;5063417;28;20233;-46
2023/06/19 05:50:40;;;;;;;7.75;6.22;;;;;;;;;;5063783;28;20183;-47
2023/06/19 05:53:06;;;;;;;8.40;6.00;;;;;;;;;;5056910;28;20399;-47
2023/06/19 05:55:32;;;;;;;7.75;6.45;;;;;;;;;;5064903;28;20225;-46
2023/06/19 05:57:58;;;;;;;7.38;6.20;;;;;;;;;;5060393;28;20190;-46
2023/06/19 06:00:24;;;;;;;7.07;6.15;;;;;;;;;;5056276;28;20186;-46
2023/06/19 06:02:51;;;;;;;7.47;6.10;;;;;;;;;;5068513;28;20210;-46
2023/06/19 06:05:18;;;;;;;7.57;5.72;;;;;;;;;;5055204;28;20189;-47
2023/06/19 06:07:44;;;;;;;8.23;6.50;;;;;;;;;;5056966;28;20286;-47
2023/06/19 06:10:10;;;;;;;7.15;6.13;;;;;;;;;;5062388;28;20270;-46
2023/06/19 06:12:37;;;;;;;6.60;5.97;;;;;;;;;;5056988;28;20191;-46
2023/06/19 06:15:03;;;;;;;6.95;6.20;;;;;;;;;;5054903;28;20221;-46
2023/06/19 06:17:29;;;;;;;8.02;6.40;;;;;;;;;;5059755;28;20178;-47
2023/06/19 06:19:55;;;;;;;7.93;6.38;;;;;;;;;;5069691;28;20193;-46
2023/06/19 06:22:21;;;;;;;7.03;6.05;;;;;;;;;;5058415;28;20198;-46
2023/06/19 06:24:47;;;;;;;8.98;6.15;;;;;;;;;;5062938;28;20271;-47
2023/06/19 06:27:13;;;;;;;7.60;6.22;;;;;;;;;;5060131;28;20304;-46
2023/06/19 06:29:39;;;;;;;7.25;5.97;;;;;;;;;;5048824;28;20301;-46
2023/06/19 06:32:07;;;;;;;8.30;6.28;;;;;;;;;;5064476;28;20195;-47
2023/06/19 06:34:33;;;;;;;9.70;6.68;;;;;;;;;;5055007;28;20176;-46
2023/06/19 06:36:59;;;;;;;8.10;6.10;;;;;;;;;;5054186;28;20175;-47
2023/06/19 06:39:25;;;;;;;7.30;6.38;;;;;;;;;;5054582;28;20191;-47
2023/06/19 06:41:51;;;;;;;7.50;6.45;;;;;;;;;;5052074;28;20214;-46
2023/06/19 06:44:17;;;;;;;7.10;6.40;;;;;;;;;;5054942;28;20187;-46
2023/06/19 06:46:43;;;;;;;6.72;6.03;;;;;;;;;;5062506;28;20224;-46
2023/06/19 06:49:09;;;;;;;6.78;6.18;;;;;;;;;;5052483;28;20238;-47
2023/06/19 06:51:35;;;;;;;8.27;6.25;;;;;;;;;;5051482;28;20261;-46
2023/06/19 06:54:01;;;;;;;6.53;5.82;;;;;;;;;;5057388;28;20209;-46
2023/06/19 06:56:27;;;;;;;8.25;5.95;;;;;;;;;;5056180;28;20232;-46
2023/06/19 06:58:53;;;;;;;6.80;5.85;;;;;;;;;;5062073;28;20182;-46
2023/06/19 07:01:18;;;;;;;6.10;5.50;;;;;;;;;;5069678;28;20186;-46
2023/06/19 07:03:44;;;;;;;6.68;5.70;;;;;;;;;;5061722;28;20187;-46
2023/06/19 07:06:10;;;;;;;7.55;5.43;;;;;;;;;;5057906;28;20183;-46
2023/06/19 07:08:37;;;;;;;7.70;6.18;;;;;;;;;;5063635;28;20605;-46
2023/06/19 07:11:03;;;;;;;8.63;5.63;;;;;;;;;;5064563;28;20265;-46
2023/06/19 07:13:28;;;;;;;7.75;5.85;;;;;;;;;;5060756;28;20257;-47
2023/06/19 07:15:54;;;;;;;10.15;5.75;;;;;;;;;;5055230;28;20177;-46
2023/06/19 07:18:20;;;;;;;7.97;6.05;;;;;;;;;;5063880;28;20517;-46
2023/06/19 07:20:46;;;;;;;5.72;5.13;;;;;;;;;;5059413;28;20254;-46
2023/06/19 07:23:12;;;;;;;7.28;5.85;;;;;;;;;;5057495;28;20207;-46
2023/06/19 07:25:38;;;;;;;6.20;5.60;;;;;;;;;;5045103;28;20187;-46
2023/06/19 07:28:04;;;;;;;6.90;5.38;;;;;;;;;;5055398;28;20215;-46
2023/06/19 07:30:30;;;;;;;6.63;5.47;;;;;;;;;;5054869;28;20178;-46
2023/06/19 07:32:56;;;;;;;6.00;5.40;;;;;;;;;;5058617;28;20859;-46
2023/06/19 07:35:22;;;;;;;8.48;5.45;;;;;;;;;;5054733;28;20179;-46
2023/06/19 07:37:48;;;;;;;5.82;5.22;;;;;;;;;;5053907;28;20193;-46
2023/06/19 07:40:14;;;;;;;6.70;5.50;;;;;;;;;;5053491;28;20570;-46
2023/06/19 07:42:40;;;;;;;5.97;5.30;;;;;;;;;;5056847;28;20273;-46
2023/06/19 07:45:06;;;;;;;7.72;5.72;;;;;;;;;;5052014;28;20294;-46
2023/06/19 07:47:32;;;;;;;8.27;5.80;;;;;;;;;;5053019;28;20488;-46
2023/06/19 07:49:58;;;;;;;5.90;5.28;;;;;;;;;;5053768;28;20171;-45
2023/06/19 07:52:24;;;;;;;6.38;5.47;;;;;;;;;;5054211;28;20183;-46
2023/06/19 07:54:57;;;;;;;6.07;5.47;;;;;;;;;;5053810;28;20175;-46
2023/06/19 07:57:23;;;;;;;6.70;5.22;;;;;;;;;;5053686;28;20179;-46
2023/06/19 07:59:50;;;;;;;7.88;5.82;;;;;;;;;;5056730;28;20179;-46
2023/06/19 08:02:16;;;;;;;9.15;6.30;;;;;;;;;;5052696;28;20221;-46
2023/06/19 08:04:42;;;;;;;7.65;6.47;;;;;;;;;;5055383;28;20179;-46
2023/06/19 08:07:08;;;;;;;7.68;6.70;;;;;;;;;;5055071;28;20265;-46
2023/06/19 08:09:34;;;;;;;10.05;6.10;;;;;;;;;;5057522;28;20187;-46
2023/06/19 08:12:01;;;;;;;9.18;6.65;;;;;;;;;;5058546;28;20210;-46
2023/06/19 08:14:27;;;;;;;6.90;6.00;;;;;;;;;;5056360;28;20201;-46
2023/06/19 08:16:52;;;;;;;7.63;6.13;;;;;;;;;;5062798;28;20179;-46
2023/06/19 08:19:18;;;;;;;8.02;6.20;;;;;;;;;;5054751;28;20571;-46
2023/06/19 08:21:44;;;;;;;7.45;5.85;;;;;;;;;;5053800;28;20233;-46
2023/06/19 08:24:10;;;;;;;8.25;6.78;;;;;;;;;;5053419;28;20226;-46
2023/06/19 08:26:36;;;;;;;7.65;5.38;;;;;;;;;;5053063;28;20213;-46
2023/06/19 08:29:03;;;;;;;7.72;6.20;;;;;;;;;;5053763;28;20249;-46
2023/06/19 08:31:28;;;;;;;7.00;6.07;;;;;;;;;;5052819;28;20183;-46
2023/06/19 08:33:57;;;;;;;8.02;6.22;;;;;;;;;;5053655;28;20178;-46
2023/06/19 08:36:23;;;;;;;10.23;6.75;;;;;;;;;;5052099;28;20179;-46
2023/06/19 08:38:51;;;;;;;6.75;5.75;;;;;;;;;;5052534;28;20179;-46
2023/06/19 08:41:18;;;;;;;6.97;6.28;;;;;;;;;;5053596;28;20626;-46
2023/06/19 08:43:44;;;;;;;8.13;6.75;;;;;;;;;;5070549;28;20209;-46
2023/06/19 08:46:12;;;;;;;8.35;6.60;;;;;;;;;;5066392;28;20226;-46
2023/06/19 08:48:38;;;;;;;8.00;6.55;;;;;;;;;;5053387;28;20267;-46
2023/06/19 08:51:04;;;;;;;8.45;6.13;;;;;;;;;;5053289;28;20717;-46
2023/06/19 08:53:33;;;;;;;7.65;6.70;;;;;;;;;;5051732;28;20471;-45
2023/06/19 08:55:59;;;;;;;7.63;6.50;;;;;;;;;;5052889;28;20647;-45
2023/06/19 08:58:26;;;;;;;8.18;6.85;;;;;;;;;;5056855;28;20186;-45
2023/06/19 09:00:52;;;;;;;7.35;6.60;;;;;;;;;;5055295;28;21820;-45
2023/06/19 09:03:21;;;;;;;7.50;6.70;;;;;;;;;;5056663;28;20187;-46
2023/06/19 09:05:51;;;;;;;6.97;5.95;;;;;;;;;;5054747;28;20179;-45
2023/06/19 09:08:17;;;;;;;7.78;6.30;;;;;;;;;;5056585;28;20281;-46
2023/06/19 09:10:43;;;;;;;7.78;6.28;;;;;;;;;;5058792;28;20510;-45
2023/06/19 09:13:09;;;;;;;7.20;6.50;;;;;;;;;;5061298;28;20539;-45
2023/06/19 09:15:36;;;;;;;9.95;6.88;;;;;;;;;;5066089;28;20191;-46
2023/06/19 09:18:03;;;;;;;9.25;7.00;;;;;;;;;;5067750;28;20183;-45
2023/06/19 09:20:29;;;;;;;8.73;7.53;;;;;;;;;;5058018;28;20207;-45
2023/06/19 09:22:59;;;;;;;9.55;7.07;;;;;;;;;;5064675;28;20362;-45
2023/06/19 09:25:26;;;;;;;8.40;6.57;;;;;;;;;;5055398;28;20424;-45
2023/06/19 09:27:52;;;;;;;9.38;7.40;;;;;;;;;;5066004;28;20861;-45
2023/06/19 09:30:18;;;;;;;9.43;8.00;;;;;;;;;;5065267;28;20183;-45
2023/06/19 09:32:44;;;;;;;8.35;7.13;;;;;;;;;;5064374;28;20580;-45
2023/06/19 09:35:10;;;;;;;9.02;7.78;;;;;;;;;;5063202;28;20190;-45
2023/06/19 09:37:38;;;;;;;9.10;7.20;;;;;;;;;;5066772;28;20571;-45
2023/06/19 09:40:11;;;;;;;8.57;7.68;;;;;;;;;;5056066;28;20182;-45
2023/06/19 09:42:40;;;;;;;9.45;7.75;;;;;;;;;;5058468;28;20191;-45
2023/06/19 09:45:08;;;;;;;10.18;7.65;;;;;;;;;;5065971;28;20581;-45
2023/06/19 09:47:37;;;;;;;8.30;7.40;;;;;;;;;;5062593;28;20290;-45
2023/06/19 09:50:04;;;;;;;10.68;7.53;;;;;;;;;;5061336;28;20289;-45
2023/06/19 09:52:30;;;;;;;10.93;7.68;;;;;;;;;;5064545;28;20549;-45
2023/06/19 09:54:57;;;;;;;9.98;7.28;;;;;;;;;;5054878;28;20179;-45
2023/06/19 09:57:23;;;;;;;7.80;7.00;;;;;;;;;;5072828;28;20267;-45
2023/06/19 09:59:56;;;;;;;11.00;7.22;;;;;;;;;;5053162;28;20185;-45
2023/06/19 10:02:22;;;;;;;11.88;7.50;;;;;;;;;;5063388;28;20182;-45
2023/06/19 10:04:52;;;;;;;8.88;7.20;;;;;;;;;;5062292;28;20183;-45
2023/06/19 10:07:19;;;;;;;10.93;7.53;;;;;;;;;;5067606;28;20252;-45
2023/06/19 10:09:58;;;;;;;8.95;7.35;;;;;;;;;;5072672;28;20594;-45
2023/06/19 10:12:34;;;;;;;9.02;7.90;;;;;;;;;;5061538;28;20455;-45
2023/06/19 10:15:08;;;;;;;11.07;7.60;;;;;;;;;;5052354;28;20530;-46
2023/06/19 10:17:34;;;;;;;11.80;7.65;;;;;;;;;;5067516;28;20611;-46
2023/06/19 10:20:00;;;;;;;8.77;7.43;;;;;;;;;;5056319;28;20192;-46
2023/06/19 10:22:30;;;;;;;7.57;6.75;;;;;;;;;;5062700;28;20198;-46
2023/06/19 10:24:56;;;;;;;8.07;7.13;;;;;;;;;;5046796;28;20179;-46
2023/06/19 10:27:22;;;;;;;8.90;7.57;;;;;;;;;;5063086;28;20577;-45
2023/06/19 10:29:57;;;;;;;11.38;7.38;;;;;;;;;;5066120;28;20230;-45
2023/06/19 10:32:23;;;;;;;8.40;7.50;;;;;;;;;;5052735;28;20167;-46
2023/06/19 10:34:49;;;;;;;8.63;6.82;;;;;;;;;;5065772;28;20178;-45
2023/06/19 10:37:16;;;;;;;7.78;6.93;;;;;;;;;;5060351;28;20266;-45
2023/06/19 10:39:42;;;;;;;10.18;7.22;;;;;;;;;;5061213;28;20183;-46
2023/06/19 10:42:08;;;;;;;10.38;6.90;;;;;;;;;;5056882;28;20191;-45
2023/06/19 10:44:35;;;;;;;9.10;7.20;;;;;;;;;;5060162;28;20180;-45
2023/06/19 10:47:01;;;;;;;11.27;6.97;;;;;;;;;;5059794;28;20220;-45
2023/06/19 10:49:28;;;;;;;9.20;6.90;;;;;;;;;;5062854;28;20198;-45
2023/06/19 10:51:58;;;;;;;11.30;7.50;;;;;;;;;;5059488;28;20179;-46
2023/06/19 10:54:24;;;;;;;9.85;6.85;;;;;;;;;;5062936;28;20197;-46
2023/06/19 10:56:51;;;;;;;8.05;6.78;;;;;;;;;;5056740;28;20218;-46
2023/06/19 10:59:17;;;;;;;8.27;6.93;;;;;;;;;;5063459;28;20198;-45
2023/06/19 11:01:45;;;;;;;9.40;7.97;;;;;;;;;;5058240;28;20302;-45
2023/06/19 11:04:12;;;;;;;7.85;6.95;;;;;;;;;;5056599;28;20194;-45
2023/06/19 11:06:38;;;;;;;8.73;7.25;;;;;;;;;;5057431;28;20281;-45
2023/06/19 11:09:05;;;;;;;7.90;7.07;;;;;;;;;;5064352;28;20268;-46
2023/06/19 11:11:42;;;;;;;9.32;7.57;;;;;;;;;;5063271;28;20434;-45
2023/06/19 11:14:08;;;;;;;7.80;6.97;;;;;;;;;;5062007;28;20182;-45
2023/06/19 11:16:34;;;;;;;8.18;6.97;;;;;;;;;;5061768;28;20358;-45
2023/06/19 11:19:01;;;;;;;9.50;6.88;;;;;;;;;;5073940;28;20257;-46
2023/06/19 11:21:36;;;;;;;7.95;6.65;;;;;;;;;;5055519;28;20206;-45
2023/06/19 11:24:02;;;;;;;9.00;6.70;;;;;;;;;;5046893;28;20589;-45
2023/06/19 11:26:28;;;;;;;9.35;7.07;;;;;;;;;;5053505;28;20183;-45
2023/06/19 11:28:54;;;;;;;8.88;6.53;;;;;;;;;;5052176;28;20207;-45
2023/06/19 11:31:29;;;;;;;12.60;7.65;;;;;;;;;;5054491;28;20210;-46
2023/06/19 11:33:59;;;;;;;9.35;6.97;;;;;;;;;;5062218;28;20193;-46
2023/06/19 11:36:25;;;;;;;8.55;6.10;;;;;;;;;;5045498;28;20206;-46
2023/06/19 11:38:52;;;;;;;9.20;6.53;;;;;;;;;;5052880;28;20219;-46
2023/06/19 11:41:26;;;;;;;7.45;6.38;;;;;;;;;;5053323;28;20187;-45
2023/06/19 11:43:58;;;;;;;7.72;6.90;;;;;;;;;;5054146;28;20179;-45
2023/06/19 11:46:28;;;;;;;8.10;6.28;;;;;;;;;;5051180;28;20228;-45
2023/06/19 11:48:54;;;;;;;7.72;6.55;;;;;;;;;;5064758;28;20758;-45
2023/06/19 11:51:20;;;;;;;6.60;6.00;;;;;;;;;;5059561;28;20252;-45
2023/06/19 11:53:46;;;;;;;9.95;6.80;;;;;;;;;;5061524;28;20582;-45
2023/06/19 11:56:12;;;;;;;9.68;6.93;;;;;;;;;;5058980;28;20215;-45
2023/06/19 11:58:38;;;;;;;9.50;6.30;;;;;;;;;;5053596;28;20577;-45
2023/06/19 12:01:03;;;;;;;7.45;6.43;;;;;;;;;;5054361;28;20187;-45
2023/06/19 12:03:29;;;;;;;13.77;7.00;;;;;;;;;;5054141;28;20187;-45
2023/06/19 12:05:55;;;;;;;8.50;6.60;;;;;;;;;;5060878;28;20285;-46
2023/06/19 12:08:21;;;;;;;7.47;6.68;;;;;;;;;;5065677;28;20472;-45
2023/06/19 12:10:47;;;;;;;11.55;6.07;;;;;;;;;;5055479;28;20190;-46
2023/06/19 12:13:13;;;;;;;8.52;6.88;;;;;;;;;;5062550;28;20179;-45
2023/06/19 12:15:39;;;;;;;7.43;6.70;;;;;;;;;;5053193;28;20462;-45
2023/06/19 12:18:06;;;;;;;7.60;6.72;;;;;;;;;;5057439;28;20255;-46
2023/06/19 12:20:32;;;;;;;9.77;6.95;;;;;;;;;;5062025;28;20175;-46
2023/06/19 12:22:58;;;;;;;9.10;6.38;;;;;;;;;;5064903;28;20482;-46
2023/06/19 12:25:24;;;;;;;6.80;6.07;;;;;;;;;;5058307;28;20190;-48
2023/06/19 12:27:51;;;;;;;7.70;6.55;;;;;;;;;;5063851;28;20215;-47
2023/06/19 12:30:17;;;;;;;6.68;5.90;;;;;;;;;;5059520;28;20224;-47
2023/06/19 12:32:42;;;;;;;7.78;5.70;;;;;;;;;;5057227;28;20191;-48
2023/06/19 12:35:09;;;;;;;7.18;6.47;;;;;;;;;;5060837;28;20178;-48
2023/06/19 12:37:35;;;;;;;7.28;6.57;;;;;;;;;;5064502;28;20179;-47
2023/06/19 12:40:01;;;;;;;6.50;5.80;;;;;;;;;;5067216;28;20585;-48
2023/06/19 12:42:27;;;;;;;8.27;6.20;;;;;;;;;;5056434;28;20266;-48
2023/06/19 12:44:53;;;;;;;10.27;5.57;;;;;;;;;;5066640;28;20171;-48
2023/06/19 12:47:18;;;;;;;7.40;5.82;;;;;;;;;;5066617;28;20250;-47
2023/06/19 12:49:44;;;;;;;6.97;6.10;;;;;;;;;;5065373;28;20280;-48
2023/06/19 12:52:10;;;;;;;6.18;5.57;;;;;;;;;;5068203;28;20190;-47
2023/06/19 12:54:36;;;;;;;6.20;5.30;;;;;;;;;;5065429;28;20225;-47
2023/06/19 12:57:02;;;;;;;8.32;5.07;;;;;;;;;;5064212;28;20712;-47
2023/06/19 12:59:29;;;;;;;7.38;5.57;;;;;;;;;;5061032;28;20252;-47
2023/06/19 13:01:55;;;;;;;7.07;5.40;;;;;;;;;;5063613;28;20186;-47
2023/06/19 13:04:21;;;;;;;7.00;5.07;;;;;;;;;;5067085;28;20179;-47
2023/06/19 13:06:47;;;;;;;5.80;4.80;;;;;;;;;;5062980;28;20194;-47
2023/06/19 13:09:13;;;;;;;7.88;4.90;;;;;;;;;;5067197;28;20214;-47
2023/06/19 13:11:39;;;;;;;6.53;4.88;;;;;;;;;;5063403;28;20179;-47
2023/06/19 13:14:05;;;;;;;5.55;4.70;;;;;;;;;;5064808;28;20470;-47
2023/06/19 13:16:34;;;;;;;8.45;4.70;;;;;;;;;;5055689;28;20195;-47
2023/06/19 13:18:59;;;;;;;6.13;4.75;;;;;;;;;;5063816;28;20236;-47
2023/06/19 13:21:25;;;;;;;7.65;4.90;;;;;;;;;;5062878;28;20190;-47
2023/06/19 13:23:51;;;;;;;5.90;3.83;;;;;;;;;;5065474;28;20198;-47
2023/06/19 13:26:17;;;;;;;8.48;4.32;;;;;;;;;;5061968;28;20585;-47
2023/06/19 13:28:43;;;;;;;5.22;4.30;;;;;;;;;;5064961;28;20248;-47
2023/06/19 13:31:09;;;;;;;4.03;3.50;;;;;;;;;;5062602;28;20613;-47
2023/06/19 13:33:35;;;;;;;6.13;3.58;;;;;;;;;;5063110;28;20305;-47
2023/06/19 13:36:01;;;;;;;5.32;3.58;;;;;;;;;;5061631;28;20249;-47
2023/06/19 13:38:27;;;;;;;4.40;3.97;;;;;;;;;;5062259;28;20190;-47
2023/06/19 13:40:52;;;;;;;4.22;3.75;;;;;;;;;;5063253;28;20179;-48
2023/06/19 13:43:19;;;;;;;6.30;3.85;;;;;;;;;;5056940;28;20239;-47
2023/06/19 13:45:46;;;;;;;4.35;3.53;;;;;;;;;;5058491;28;20186;-47
2023/06/19 13:48:11;;;;;;;4.28;3.55;;;;;;;;;;5059564;28;20213;-47
2023/06/19 13:50:37;;;;;;;7.00;3.72;;;;;;;;;;5065046;28;20182;-47
2023/06/19 13:53:03;;;;;;;6.00;4.03;;;;;;;;;;5060216;28;20202;-47
2023/06/19 13:55:29;;;;;;;6.28;4.57;;;;;;;;;;5067840;28;20179;-47
2023/06/19 13:57:55;;;;;;;5.05;3.35;;;;;;;;;;5063540;28;20249;-47
2023/06/19 14:00:21;;;;;;;5.13;3.75;;;;;;;;;;5058984;28;20187;-48
2023/06/19 14:02:47;;;;;;;4.32;3.55;;;;;;;;;;5058060;28;20187;-47
2023/06/19 14:05:16;;;;;;;4.20;3.80;;;;;;;;;;5061660;28;20232;-47
2023/06/19 14:07:42;;;;;;;4.70;4.10;;;;;;;;;;5062667;28;20199;-48
2023/06/19 14:10:08;;;;;;;4.13;3.72;;;;;;;;;;5066905;28;20266;-47
2023/06/19 14:12:34;;;;;;;4.28;3.88;;;;;;;;;;5067991;28;20183;-48
2023/06/19 14:15:00;;;;;;;4.05;3.65;;;;;;;;;;5063029;28;20191;-48
2023/06/19 14:17:26;;;;;;;5.32;3.75;;;;;;;;;;5066435;28;20624;-47
2023/06/19 14:19:52;;;;;;;4.32;3.92;;;;;;;;;;5058754;28;20186;-47
2023/06/19 14:22:18;;;;;;;4.28;3.88;;;;;;;;;;5066646;28;20219;-48
2023/06/19 14:24:44;;;;;;;3.75;3.45;;;;;;;;;;5049342;28;20269;-47
2023/06/19 14:27:10;;;;;;;3.88;3.50;;;;;;;;;;5057727;28;20274;-48
2023/06/19 14:29:35;;;;;;;5.80;3.97;;;;;;;;;;5053652;28;20293;-48
2023/06/19 14:32:02;;;;;;;4.03;3.63;;;;;;;;;;5060088;28;20543;-49
2023/06/19 14:34:29;;;;;;;4.57;4.18;;;;;;;;;;5051746;28;20206;-48
2023/06/19 14:36:55;;;;;;;4.10;3.40;;;;;;;;;;5054419;28;20187;-48
2023/06/19 14:39:21;;;;;;;4.85;3.70;;;;;;;;;;5059551;28;20577;-47